Greenwd, Indiana
Current Conditions -  °F | °C
As of 1:54 PM on Saturday 25 Oct 2014 (Local Time) from KIND Reporting Station
Scattered Clouds Scattered Clouds  
Wind Chill: 73°   Ceiling: Unl
Heat Index: 73°   Visibility: 10mi
Dew Point: 53°   Wind: 12mph
Humidity: 49%   Direction: 270°W
Pressure: 29.95"   Gusts: NA
Location:  39.5883°N, 86.07°W
Report Text: KIND 251754Z 27010KT 10SM FEW250 SCT300 23/12 A2995 RMK AO2 SLP138 T02280117 10228 20117 58010
Loading
Personal Weather Stations






























Interactive Weather Map
Tropical Storm Tracking
New forecast layout! Learn more

10-Day Weather Forecast

Advertisements
Track Severe Weather on mobile